• Join FlightAware (Why Join?)
  • Login
  • US Flag 
05:24AM EDT


 

Airport Tracker/Info


-or-


 

Live Flight TrackerFlight Track Log ✈ N830W ✈ 15-Jun-2014 ✈ KGKJ - I68

Flight Track Log - Related Links

Times and Time Zones

All times are in EDT time to prevent confusion due to time zone crossing. See the N830W flight status page for this flight to view local times or setup timezone preferences in your user account.

Time Position Orientation Groundspeed Altitude Reporting Facility
EDT Latitude Longitude Course Direction KTS MPH feet Rate Location/Type
05:22PM 41.5408 -80.3922 242° Southwest 89 102 5,600  Level Cleveland Center
05:23PM 41.5283 -80.4225 241° Southwest 90 104 6,100 420 Climbing Cleveland Center
05:24PM 41.5155 -80.4024 236° Southwest  Level FlightAware Approximate
05:24PM 41.5131 -80.4511 235° Southwest 91 105 6,500  Level Cleveland Center
05:25PM 41.4952 -80.4430 236° Southwest  Level FlightAware Approximate
05:25PM 41.4953 -80.4831 233° Southwest 102 117 6,600  Level Cleveland Center
05:26PM 41.4750 -80.4837 236° Southwest  Level FlightAware Approximate
05:26PM 41.4778 -80.5219 239° Southwest 118 136 6,600  Level Cleveland Center
05:27PM 41.4592 -80.5600 237° Southwest 119 137 6,600 -60 Level Cleveland Center
05:28PM 41.4392 -80.5958 233° Southwest 119 137 6,500 -60 Descending Cleveland Center
05:29PM 41.4186 -80.6408 239° Southwest 120 138 6,500  Level Cleveland Center
05:30PM 41.3989 -80.6778 235° Southwest 120 138 6,500  Level Cleveland Center
05:31PM 41.3803 -80.7131 235° Southwest 119 137 6,500  Level Cleveland Center
05:32PM 41.3578 -80.7442 226° Southwest 117 135 6,500  Level Cleveland Center
05:33PM 41.3389 -80.7781 233° Southwest 117 135 6,500  Level Cleveland Center
05:34PM 41.3186 -80.8125 232° Southwest 117 135 6,600  Climbing Cleveland Center
05:35PM 41.2975 -80.8453 229° Southwest 116 133 6,500  Descending Cleveland Center
05:36PM 41.2742 -80.8850 232° Southwest 116 133 6,600  Climbing Cleveland Center
05:37PM 41.2544 -80.9167 230° Southwest 114 131 6,600  Level Cleveland Center
05:38PM 41.2322 -80.9483 227° Southwest 114 131 6,600  Level Cleveland Center
05:39PM 41.2122 -80.9822 232° Southwest 115 132 6,600  Level Cleveland Center
05:41PM 41.1939 -81.0192 237° Southwest 117 135 6,600  Level Cleveland Center
05:42PM 41.1739 -81.0531 232° Southwest 117 135 6,600  Level Cleveland Center
05:43PM 41.1547 -81.0867 233° Southwest 117 135 6,600  Level Cleveland Center
05:44PM 41.1322 -81.1250 232° Southwest 116 133 6,600 -60 Level Cleveland Center
05:45PM 41.1108 -81.1553 227° Southwest 115 132 6,500 -60 Descending Cleveland Center
05:46PM 41.0917 -81.1883 232° Southwest 114 131 6,500  Level Cleveland Center
05:47PM 41.0719 -81.2211 231° Southwest 114 131 6,600  Climbing Cleveland Center
05:48PM 41.0517 -81.2517 229° Southwest 114 131 6,500  Descending Cleveland Center
05:49PM 41.0328 -81.2858 234° Southwest 113 130 6,600  Climbing Cleveland Center
05:50PM 41.0136 -81.3186 232° Southwest 113 130 6,500 -60 Descending Cleveland Center
05:51PM 40.9953 -81.3522 234° Southwest 113 130 6,500  Level Cleveland Center
05:52PM 40.9728 -81.3911 233° Southwest 113 130 6,500  Level Cleveland Center
05:53PM 40.9544 -81.4250 234° Southwest 113 130 6,500  Level Cleveland Center
05:54PM 40.9353 -81.4569 232° Southwest 113 130 6,600  Climbing Cleveland Center
05:55PM 40.9161 -81.4897 232° Southwest 112 129 6,500 -60 Descending Cleveland Center
05:56PM 40.9000 -81.5239 238° Southwest 112 129 6,500  Level Cleveland Center
05:57PM 40.8822 -81.5575 235° Southwest 111 128 6,600  Climbing Cleveland Center
05:58PM 40.8639 -81.5919 235° Southwest 111 128 6,600  Level Cleveland Center
05:59PM 40.8450 -81.6233 232° Southwest 111 128 6,600 -60 Level Cleveland Center
06:00PM 40.8256 -81.6642 238° Southwest 111 128 6,500 -60 Descending Cleveland Center
06:01PM 40.8078 -81.6989 236° Southwest 111 128 6,500 -60 Level Cleveland Center
06:02PM 40.7925 -81.7356 241° Southwest 111 128 6,400 -60 Descending Cleveland Center
06:03PM 40.7769 -81.7717 240° Southwest 111 128 6,400  Level Cleveland Center
06:04PM 40.7594 -81.8067 237° Southwest 112 129 6,500  Climbing Cleveland Center
06:05PM 40.7411 -81.8422 236° Southwest 113 130 6,500  Level Cleveland Center
06:06PM 40.7211 -81.8733 230° Southwest 112 129 6,500  Level Cleveland Center
06:07PM 40.7014 -81.9150 238° Southwest 113 130 6,500  Level Cleveland Center
06:08PM 40.6861 -81.9500 240° Southwest 113 130 6,500 -60 Level Cleveland Center
06:09PM 40.6681 -81.9836 235° Southwest 113 130 6,400 -60 Descending Cleveland Center
06:11PM 40.6483 -82.0131 229° Southwest 107 123 6,400  Level Cleveland Center
06:12PM 40.6300 -82.0456 233° Southwest 108 124 6,500  Climbing Cleveland Center
06:13PM 40.6144 -82.0789 238° Southwest 108 124 6,500  Level Indianapolis Center
06:14PM 40.5956 -82.1117 233° Southwest 108 124 6,500 -60 Level Indianapolis Center
06:15PM 40.5775 -82.1378 228° Southwest 104 120 6,400 -60 Descending Indianapolis Center
06:16PM 40.5592 -82.1678 231° Southwest 104 120 6,400 -60 Level Indianapolis Center
06:17PM 40.5392 -82.2033 233° Southwest 104 120 6,300  Descending Indianapolis Center
06:18PM 40.5208 -82.2344 232° Southwest 104 120 6,500  Climbing Indianapolis Center
06:19PM 40.5019 -82.2631 229° Southwest 104 120 6,400 -60 Descending Indianapolis Center
06:20PM 40.4839 -82.2936 232° Southwest 104 120 6,400  Level Indianapolis Center
06:21PM 40.4644 -82.3233 229° Southwest 104 120 6,400  Level Indianapolis Center
06:22PM 40.4475 -82.3578 237° Southwest 108 124 6,500 60 Climbing Indianapolis Center
06:23PM 40.4325 -82.3856 235° Southwest 106 122 6,600 60 Climbing Indianapolis Center
06:23PM 40.4300 -82.3883 220° Southwest 105 121 6,600  Level Indianapolis Center
06:24PM 40.4147 -82.4186 236° Southwest 107 123 6,600 -120 Level Indianapolis Center
06:24PM 40.4108 -82.4272 239° Southwest 106 122 6,500 -120 Descending Indianapolis Center
06:25PM 40.3953 -82.4486 226° Southwest 107 123 6,500 60 Level Indianapolis Center
06:25PM 40.3911 -82.4567 236° Southwest 106 122 6,600 60 Climbing Indianapolis Center
06:26PM 40.3797 -82.4819 239° Southwest 107 123 6,600 -120 Level Indianapolis Center
06:26PM 40.3769 -82.4908 248° West 106 122 6,500 -120 Descending Indianapolis Center
06:27PM 40.3661 -82.5181 242° Southwest 109 125 6,500  Level Indianapolis Center
06:27PM 40.3617 -82.5267 236° Southwest 110 127 6,500  Level Indianapolis Center
06:28PM 40.3483 -82.5511 234° Southwest 105 121 6,500  Level Indianapolis Center
06:28PM 40.3464 -82.5603 254° West 109 125 6,500  Level Indianapolis Center
06:29PM 40.3328 -82.5844 234° Southwest 105 121 6,500  Level Indianapolis Center
06:29PM 40.3306 -82.5925 250° West 109 125 6,500 -120 Level Indianapolis Center
06:30PM 40.3169 -82.6175 234° Southwest 108 124 6,400 -120 Descending Indianapolis Center
06:30PM 40.3133 -82.6250 238° Southwest 108 124 6,400 60 Level Indianapolis Center
06:31PM 40.2994 -82.6506 235° Southwest 108 124 6,500 60 Climbing Indianapolis Center
06:31PM 40.2969 -82.6583 247° West 108 124 6,500  Level Indianapolis Center
06:32PM 40.2839 -82.6808 233° Southwest 105 121 6,500 60 Level Indianapolis Center
06:32PM 40.2767 -82.6936 233° Southwest 107 123 6,600 180 Climbing Indianapolis Center
06:33PM 40.2658 -82.7164 238° Southwest 106 122 6,700  Climbing Indianapolis Center
06:33PM 40.2603 -82.7264 234° Southwest 107 123 6,600 -120 Descending Indianapolis Center
06:34PM 40.2483 -82.7467 232° Southwest 106 122 6,600  Level Indianapolis Center
06:34PM 40.2417 -82.7581 233° Southwest 107 123 6,600 -120 Level Indianapolis Center
06:35PM 40.2308 -82.7794 236° Southwest 108 124 6,500 -120 Descending Indianapolis Center
06:35PM 40.2250 -82.7894 233° Southwest 107 123 6,500  Level Indianapolis Center
06:36PM 40.2153 -82.8100 238° Southwest 105 121 6,500  Level Indianapolis Center
06:36PM 40.2089 -82.8211 233° Southwest 107 123 6,500 -120 Level Indianapolis Center
06:37PM 40.1978 -82.8400 232° Southwest 104 120 6,400 -120 Descending Indianapolis Center
06:37PM 40.1936 -82.8528 247° West 107 123 6,400  Level Indianapolis Center
06:38PM 40.1817 -82.8758 236° Southwest 106 122 6,400  Level Indianapolis Center
06:38PM 40.1764 -82.8861 236° Southwest 106 122 6,400 -180 Level Indianapolis Center
06:39PM 40.1619 -82.9081 229° Southwest 107 123 6,200 -300 Descending Indianapolis Center
06:39PM 40.1536 -82.9217 231° Southwest 107 123 6,100 -300 Descending Indianapolis Center
06:40PM 40.1419 -82.9406 231° Southwest 117 135 5,900 -420 Descending Indianapolis Center
06:40PM 40.1344 -82.9569 239° Southwest 115 132 5,700 -300 Descending Indianapolis Center
06:41PM 40.1217 -82.9783 232° Southwest 118 136 5,600 -120 Descending Indianapolis Center
06:42PM 40.1164 -82.9914 242° Southwest 116 133 5,600 -120 Level Indianapolis Center
06:42PM 40.1039 -83.0111 230° Southwest 110 127 5,500  Descending Indianapolis Center
06:43PM 40.0989 -83.0239 243° Southwest 115 132 5,600 60 Climbing Indianapolis Center
06:43PM 40.0881 -83.0442 235° Southwest 107 123 5,600  Level Indianapolis Center
06:44PM 40.0822 -83.0550 235° Southwest 111 128 5,600 -120 Level Indianapolis Center
06:44PM 40.0722 -83.0769 239° Southwest 107 123 5,500  Descending Indianapolis Center
06:45PM 40.0625 -83.0969 238° Southwest 111 128 5,600 60 Climbing Indianapolis Center
06:45PM 40.0542 -83.1125 235° Southwest 110 127 5,600  Level Indianapolis Center
06:46PM 40.0469 -83.1289 240° Southwest 110 127 5,600  Level Indianapolis Center
06:46PM 40.0383 -83.1453 236° Southwest 111 128 5,600  Level Indianapolis Center
06:47PM 40.0319 -83.1653 247° West 111 128 5,600 60 Level Indianapolis Center
06:47PM 40.0247 -83.1786 235° Southwest 113 130 5,700  Climbing Indianapolis Center
06:48PM 40.0156 -83.2006 241° Southwest 111 128 5,600 -240 Descending Indianapolis Center
06:48PM 40.0086 -83.2142 236° Southwest 113 130 5,500 -300 Descending Indianapolis Center
06:49PM 39.9978 -83.2356 237° Southwest 111 128 5,300 -300 Descending Indianapolis Center
06:49PM 39.9881 -83.2519 232° Southwest 123 142 5,200 -240 Descending Indianapolis Center
06:50PM 39.9781 -83.2719 237° Southwest 117 135 5,100 -240 Descending Indianapolis Center
06:50PM 39.9700 -83.2872 235° Southwest 122 140 5,000 -240 Descending Indianapolis Center
06:51PM 39.9572 -83.3158 240° Southwest 118 136 4,900 -240 Descending Indianapolis Center
06:51PM 39.9517 -83.3250 232° Southwest 119 137 4,800 -240 Descending Indianapolis Center
06:52PM 39.9408 -83.3533 244° Southwest 119 137 4,700 -120 Descending Indianapolis Center
06:52PM 39.9353 -83.3633 234° Southwest 121 139 4,700 -120 Level Indianapolis Center
06:53PM 39.9233 -83.3919 241° Southwest 119 137 4,600 -120 Descending Indianapolis Center
06:53PM 39.9189 -83.4014 238° Southwest 121 139 4,600  Level Indianapolis Center
06:54PM 39.9078 -83.4289 242° Southwest 119 137 4,600  Level Indianapolis Center
06:54PM 39.9025 -83.4397 238° Southwest 116 133 4,600 -120 Level Indianapolis Center
06:55PM 39.8931 -83.4647 244° Southwest 119 137 4,500 -60 Descending Indianapolis Center
06:56PM 39.8742 -83.5081 240° Southwest 119 137 4,500 -60 Level Indianapolis Center
06:57PM 39.8561 -83.5431 236° Southwest 118 136 4,400  Descending Indianapolis Center
06:58PM 39.8431 -83.5808 246° West 119 137 4,500 60 Climbing Indianapolis Center
06:58PM 39.8408 -83.5931 257° West 120 138 4,500  Level Indianapolis Center
06:59PM 39.8364 -83.6228 259° West 119 137 4,500  Level Indianapolis Center
07:00PM 39.8269 -83.6722 256° West 119 137 4,500  Level Indianapolis Center
07:01PM 39.8153 -83.7197 252° West 116 133 4,500  Level Indianapolis Center
07:02PM 39.8056 -83.7494 247° West 118 136 4,500  Level Indianapolis Center
07:03PM 39.7950 -83.7900 251° West 118 136 4,500 -60 Level Indianapolis Center
07:04PM 39.7842 -83.8294 250° West 118 136 4,400 -60 Descending Indianapolis Center
07:05PM 39.7722 -83.8672 248° West 118 136 4,400 -180 Level Indianapolis Center
07:06PM 39.7561 -83.9144 246° West 118 136 4,100 -300 Descending Indianapolis Center
07:07PM 39.7408 -83.9558 244° Southwest 119 137 3,800 -300 Descending Indianapolis Center
07:08PM 39.7158 -83.9914 228° Southwest 119 137 3,500 -360 Descending Indianapolis Center
07:09PM 39.6944 -84.0194 225° Southwest 119 137 3,100 -360 Descending Indianapolis Center
07:10PM 39.6714 -84.0483 224° Southwest 119 137 2,800 -300 Descending Indianapolis Center
07:11PM 39.6478 -84.0775 224° Southwest 117 135 2,600 -240 Descending Indianapolis Center
07:11PM 39.6478 -84.0767 90° East 119 137 2,600  Level Indianapolis Center
07:12PM 39.6258 -84.1061 226° Southwest 114 131 2,600  Level Indianapolis Center
07:13PM 39.6208 -84.1114 219° Southwest 118 136 2,600  Level Indianapolis Center
07:13PM 39.5986 -84.1258 207° Southwest 112 129 2,600  Level Indianapolis Center
07:14PM 39.5942 -84.1286 206° Southwest 112 129 2,600  Level Indianapolis Center
07:14PM 39.5717 -84.1428 206° Southwest 110 127 2,600 -120 Level Indianapolis Center
07:15PM 39.5658 -84.1467 207° Southwest 112 129 2,500  Descending Indianapolis Center
07:16PM 39.5364 -84.1717 213° Southwest 112 129 2,600 60 Climbing Indianapolis Center